createdAt,value
2022-12-20T00:00:56.856Z,79.00
2022-12-20T00:03:20.812Z,78.95
2022-12-20T00:05:44.277Z,78.64
2022-12-20T00:08:08.298Z,78.03
2022-12-20T00:10:30.570Z,77.59
2022-12-20T00:12:52.721Z,77.51
2022-12-20T00:15:14.860Z,76.85
2022-12-20T00:17:37.447Z,76.87
2022-12-20T00:19:59.557Z,76.68
2022-12-20T00:22:21.807Z,76.52
2022-12-20T00:24:46.096Z,76.21
2022-12-20T00:27:08.158Z,76.13
2022-12-20T00:29:30.178Z,75.76
2022-12-20T00:31:52.535Z,75.69
2022-12-20T00:34:14.770Z,75.80
2022-12-20T00:36:36.968Z,75.57
2022-12-20T00:39:01.088Z,75.44
2022-12-20T00:41:27.914Z,75.24
2022-12-20T00:43:50.073Z,75.09
2022-12-20T00:46:15.318Z,74.69
2022-12-20T00:48:38.107Z,74.83
2022-12-20T00:51:14.827Z,74.32
2022-12-20T00:53:37.787Z,74.50
2022-12-20T00:56:00.466Z,74.44
2022-12-20T00:58:23.297Z,74.33
2022-12-20T01:00:48.967Z,74.22
2022-12-20T01:03:14.941Z,73.65
2022-12-20T01:05:38.271Z,73.59
2022-12-20T01:08:02.699Z,73.54
2022-12-20T01:10:25.054Z,73.40
2022-12-20T01:12:47.084Z,73.41
2022-12-20T01:15:10.009Z,73.07
2022-12-20T01:17:32.186Z,72.88
2022-12-20T01:19:54.320Z,73.08
2022-12-20T01:22:16.273Z,72.73
2022-12-20T01:24:38.294Z,73.00
2022-12-20T01:27:00.217Z,73.46
2022-12-20T01:29:22.245Z,74.09
2022-12-20T01:31:45.018Z,74.17
2022-12-20T01:34:07.480Z,74.89
2022-12-20T01:36:35.074Z,75.06
2022-12-20T01:39:03.743Z,75.51
2022-12-20T01:41:27.500Z,75.76
2022-12-20T01:44:04.021Z,75.91
2022-12-20T01:46:30.261Z,75.94
2022-12-20T01:49:16.831Z,76.58
2022-12-20T01:51:44.944Z,77.27
2022-12-20T01:54:30.798Z,78.18
2022-12-20T01:57:00.993Z,78.77
2022-12-20T01:59:23.803Z,79.33
2022-12-20T02:01:46.305Z,80.25
2022-12-20T02:04:08.529Z,80.40
2022-12-20T02:06:30.448Z,81.33
2022-12-20T02:09:02.610Z,81.87
2022-12-20T02:11:56.034Z,82.42
2022-12-20T02:14:31.995Z,83.02
2022-12-20T02:17:17.934Z,83.28
2022-12-20T02:20:07.128Z,83.51
2022-12-20T02:23:03.009Z,83.37
2022-12-20T02:26:19.984Z,83.16
2022-12-20T02:29:15.647Z,83.36
2022-12-20T02:31:47.514Z,84.14
2022-12-20T02:34:12.264Z,84.37
2022-12-20T02:36:34.189Z,84.32
2022-12-20T02:38:56.046Z,84.31
2022-12-20T02:41:38.886Z,84.10
2022-12-20T02:44:36.444Z,83.76
2022-12-20T02:47:05.384Z,84.03
2022-12-20T02:49:34.380Z,84.49
2022-12-20T02:51:58.480Z,84.49
2022-12-20T02:54:21.253Z,84.52
2022-12-20T02:56:56.636Z,84.62
2022-12-20T02:59:32.468Z,84.34
2022-12-20T03:01:56.985Z,84.37
2022-12-20T03:04:23.132Z,84.27
2022-12-20T03:07:01.241Z,84.44
2022-12-20T03:09:23.251Z,84.75
2022-12-20T03:11:45.093Z,84.49
2022-12-20T03:14:07.084Z,84.65
2022-12-20T03:16:29.162Z,84.23
2022-12-20T03:18:51.045Z,84.50
2022-12-20T03:21:13.116Z,84.26
2022-12-20T03:23:34.999Z,84.18
2022-12-20T03:25:56.869Z,83.87
2022-12-20T03:28:41.302Z,83.52
2022-12-20T03:31:05.117Z,83.33
2022-12-20T03:33:33.426Z,83.25
2022-12-20T03:36:00.347Z,83.08
2022-12-20T03:38:22.274Z,83.00
2022-12-20T03:40:44.417Z,82.94
2022-12-20T03:43:08.785Z,83.00
2022-12-20T03:45:30.846Z,82.64
2022-12-20T03:47:53.668Z,82.54
2022-12-20T03:50:15.593Z,82.24
2022-12-20T03:52:38.707Z,82.06
2022-12-20T03:55:01.084Z,81.93
2022-12-20T03:57:32.993Z,81.51
2022-12-20T03:59:55.269Z,81.22
2022-12-20T04:02:17.399Z,81.41
2022-12-20T04:04:39.453Z,81.19
2022-12-20T04:07:01.536Z,80.74
2022-12-20T04:09:23.507Z,80.89
2022-12-20T04:11:50.433Z,80.47
2022-12-20T04:14:12.440Z,80.11
2022-12-20T04:16:34.829Z,80.10
2022-12-20T04:18:57.354Z,79.72
2022-12-20T04:21:31.826Z,79.51
2022-12-20T04:23:54.346Z,79.72
2022-12-20T04:26:17.818Z,79.48
2022-12-20T04:28:40.786Z,79.17
2022-12-20T04:31:05.678Z,78.84
2022-12-20T04:33:31.786Z,79.13
2022-12-20T04:35:54.662Z,78.82
2022-12-20T04:38:19.437Z,78.57
2022-12-20T04:40:42.434Z,78.88
2022-12-20T04:43:04.306Z,78.86
2022-12-20T04:45:26.240Z,78.41
2022-12-20T04:47:49.631Z,78.14
2022-12-20T04:50:16.947Z,78.17
2022-12-20T04:52:57.586Z,77.96
2022-12-20T04:55:19.759Z,78.24
2022-12-20T04:57:41.706Z,77.94
2022-12-20T05:00:04.825Z,78.06
2022-12-20T05:02:27.021Z,77.89
2022-12-20T05:04:55.341Z,77.68
2022-12-20T05:07:17.303Z,77.44
2022-12-20T05:09:45.230Z,77.55
2022-12-20T05:12:07.400Z,77.52
2022-12-20T05:14:29.445Z,77.56
2022-12-20T05:16:51.917Z,77.56
2022-12-20T05:19:13.903Z,77.88
2022-12-20T05:21:55.140Z,77.89
2022-12-20T05:24:36.198Z,77.71
2022-12-20T05:27:18.737Z,77.73
2022-12-20T05:29:40.892Z,77.97
2022-12-20T05:32:02.858Z,77.91
2022-12-20T05:34:25.411Z,78.13
2022-12-20T05:36:49.237Z,77.91
2022-12-20T05:39:13.931Z,77.81
2022-12-20T05:41:40.499Z,77.96
2022-12-20T05:44:04.055Z,77.94
2022-12-20T05:46:29.182Z,78.26
2022-12-20T05:48:58.003Z,78.30
2022-12-20T05:51:20.069Z,77.89
2022-12-20T05:53:51.916Z,78.47
2022-12-20T05:56:18.851Z,78.51
2022-12-20T05:58:41.801Z,78.58
2022-12-20T06:01:08.080Z,78.60
2022-12-20T06:03:33.024Z,78.74
2022-12-20T06:05:57.040Z,78.59
2022-12-20T06:08:25.524Z,78.70
2022-12-20T06:10:49.357Z,78.79
2022-12-20T06:13:12.118Z,78.91
2022-12-20T06:15:34.477Z,78.50
2022-12-20T06:17:57.323Z,78.62
2022-12-20T06:20:19.401Z,78.68
2022-12-20T06:22:43.587Z,78.42
2022-12-20T06:25:06.344Z,77.92
2022-12-20T06:27:29.120Z,78.20
2022-12-20T06:30:06.164Z,78.16
2022-12-20T06:32:39.871Z,78.21
2022-12-20T06:35:02.992Z,78.11
2022-12-20T06:37:25.593Z,77.93
2022-12-20T06:39:47.568Z,77.88
2022-12-20T06:42:10.045Z,78.12
2022-12-20T06:44:34.340Z,77.91
2022-12-20T06:46:56.370Z,78.05
2022-12-20T06:49:18.781Z,77.83
2022-12-20T06:51:40.761Z,77.56
2022-12-20T06:54:02.859Z,77.77
2022-12-20T06:56:27.899Z,77.56
2022-12-20T06:58:49.762Z,77.74
2022-12-20T07:01:11.696Z,77.51
2022-12-20T07:03:33.737Z,77.51
2022-12-20T07:05:55.879Z,77.49
2022-12-20T07:08:17.846Z,77.79
2022-12-20T07:10:39.673Z,77.43
2022-12-20T07:13:01.808Z,77.34
2022-12-20T07:15:23.772Z,77.41
2022-12-20T07:17:48.742Z,77.10
2022-12-20T07:20:13.928Z,77.44
2022-12-20T07:22:36.679Z,77.33
2022-12-20T07:24:59.052Z,77.03
2022-12-20T07:27:21.127Z,76.95
2022-12-20T07:29:43.833Z,76.80
2022-12-20T07:32:07.122Z,76.77
2022-12-20T07:34:29.156Z,76.56
2022-12-20T07:36:51.258Z,76.36
2022-12-20T07:39:13.471Z,76.26
2022-12-20T07:41:35.591Z,76.33
2022-12-20T07:43:59.497Z,76.43
2022-12-20T07:46:21.766Z,76.31
2022-12-20T07:48:44.818Z,76.30
2022-12-20T07:51:12.272Z,75.96
2022-12-20T07:53:40.316Z,75.95
2022-12-20T07:56:05.019Z,75.29
2022-12-20T07:58:30.231Z,75.23
2022-12-20T08:00:52.437Z,75.74
2022-12-20T08:03:23.936Z,75.50
2022-12-20T08:05:52.905Z,75.11
2022-12-20T08:08:16.871Z,74.93
2022-12-20T08:10:39.705Z,74.83
2022-12-20T08:13:01.676Z,74.70
2022-12-20T08:15:24.136Z,74.73
2022-12-20T08:17:46.157Z,74.39
2022-12-20T08:20:08.927Z,74.36
2022-12-20T08:22:30.921Z,74.35
2022-12-20T08:24:52.820Z,74.68
2022-12-20T08:27:15.434Z,74.82
2022-12-20T08:29:37.359Z,74.93
2022-12-20T08:31:59.272Z,75.18
2022-12-20T08:34:21.326Z,75.47
2022-12-20T08:36:43.849Z,76.12
2022-12-20T08:39:07.958Z,75.97
2022-12-20T08:41:29.862Z,76.23
2022-12-20T08:43:51.866Z,76.62
2022-12-20T08:46:13.991Z,76.87
2022-12-20T08:48:36.439Z,77.20
2022-12-20T08:51:03.758Z,77.67
2022-12-20T08:53:26.040Z,77.68
2022-12-20T08:55:47.965Z,77.76
2022-12-20T08:58:09.887Z,78.58
2022-12-20T09:00:31.836Z,78.37
2022-12-20T09:02:55.374Z,78.61
2022-12-20T09:05:17.486Z,79.03
2022-12-20T09:07:39.832Z,79.39
2022-12-20T09:10:02.559Z,79.75
2022-12-20T09:12:24.590Z,80.15
2022-12-20T09:14:46.631Z,79.80
2022-12-20T09:17:08.568Z,80.49
2022-12-20T09:19:31.346Z,80.73
2022-12-20T09:21:55.473Z,80.90
2022-12-20T09:24:17.944Z,81.09
2022-12-20T09:26:40.915Z,81.48
2022-12-20T09:29:03.974Z,81.54
2022-12-20T09:31:27.258Z,81.93
2022-12-20T09:33:49.602Z,81.90
2022-12-20T09:36:20.436Z,81.74
2022-12-20T09:38:42.365Z,82.09
2022-12-20T09:41:08.496Z,82.29
2022-12-20T09:43:32.252Z,82.23
2022-12-20T09:45:59.753Z,82.27
2022-12-20T09:48:37.189Z,82.31
2022-12-20T09:51:06.491Z,82.60
2022-12-20T09:54:31.182Z,83.11
2022-12-20T09:57:14.868Z,83.10
2022-12-20T09:59:49.442Z,82.91
2022-12-20T10:02:53.846Z,82.76
2022-12-20T10:04:57.670Z,83.11
2022-12-20T10:07:43.196Z,83.01
2022-12-20T10:10:36.483Z,82.71
2022-12-20T10:13:19.184Z,81.94
2022-12-20T10:15:54.747Z,81.57
2022-12-20T10:18:50.163Z,81.61
2022-12-20T10:21:38.436Z,81.36
2022-12-20T10:24:10.618Z,81.11
2022-12-20T10:26:34.157Z,81.36
2022-12-20T10:28:56.338Z,81.05
2022-12-20T10:31:19.362Z,80.96
2022-12-20T10:33:42.341Z,80.95
2022-12-20T10:36:29.252Z,80.53
2022-12-20T10:39:01.092Z,80.85
2022-12-20T10:41:30.479Z,80.32
2022-12-20T10:44:01.686Z,80.39
2022-12-20T10:46:36.050Z,80.38
2022-12-20T10:48:58.150Z,80.06
2022-12-20T10:51:22.959Z,80.07
2022-12-20T10:53:52.990Z,79.97
2022-12-20T10:56:34.200Z,79.37
2022-12-20T10:59:06.251Z,79.31
2022-12-20T11:01:36.128Z,79.18
2022-12-20T11:04:33.597Z,79.60
2022-12-20T11:06:57.373Z,80.42
2022-12-20T11:09:38.070Z,81.08
2022-12-20T11:12:16.431Z,81.32
2022-12-20T11:14:40.437Z,81.46
2022-12-20T11:17:36.469Z,82.62
2022-12-20T11:20:30.703Z,83.00
2022-12-20T11:23:48.477Z,83.54
2022-12-20T11:26:29.341Z,83.72
2022-12-20T11:29:09.703Z,84.06
2022-12-20T11:32:26.885Z,84.40
2022-12-20T11:35:21.306Z,84.54
2022-12-20T11:38:42.936Z,85.46
2022-12-20T11:41:27.010Z,85.28
2022-12-20T11:44:27.594Z,85.30
2022-12-20T11:47:11.946Z,85.49
2022-12-20T11:50:18.412Z,85.94
2022-12-20T11:52:54.726Z,86.55
2022-12-20T11:55:25.306Z,86.47
2022-12-20T11:58:16.944Z,86.43
2022-12-20T12:00:37.090Z,86.80
2022-12-20T12:03:24.101Z,86.92
2022-12-20T12:05:53.937Z,86.73
2022-12-20T12:08:41.485Z,86.92
2022-12-20T12:11:55.857Z,86.73
2022-12-20T12:14:04.538Z,86.87
2022-12-20T12:16:42.771Z,86.96
2022-12-20T12:19:12.767Z,87.04
2022-12-20T12:21:44.450Z,86.90
2022-12-20T12:24:32.867Z,86.88
2022-12-20T12:26:55.446Z,87.35
2022-12-20T12:29:19.917Z,87.40
2022-12-20T12:31:58.410Z,87.44
2022-12-20T12:34:47.768Z,87.58
2022-12-20T12:37:30.296Z,87.54
2022-12-20T12:40:20.521Z,88.11
2022-12-20T12:42:56.912Z,87.77
2022-12-20T12:45:41.002Z,88.01
2022-12-20T12:48:27.286Z,88.06
2022-12-20T12:50:55.589Z,88.46
2022-12-20T12:53:31.337Z,88.27
2022-12-20T12:56:12.924Z,88.16
2022-12-20T12:58:41.500Z,88.76
2022-12-20T13:01:12.604Z,88.46
2022-12-20T13:04:24.604Z,88.22
2022-12-20T13:06:57.648Z,88.49
2022-12-20T13:09:38.737Z,88.67
2022-12-20T13:12:38.405Z,88.98
2022-12-20T13:15:00.400Z,88.96
2022-12-20T13:17:26.000Z,88.84
2022-12-20T13:19:54.800Z,88.76
2022-12-20T13:22:25.034Z,89.27
2022-12-20T13:24:50.740Z,89.05
2022-12-20T13:27:34.381Z,89.15
2022-12-20T13:30:11.788Z,89.11
2022-12-20T13:32:48.954Z,88.98
2022-12-20T13:35:26.350Z,88.89
2022-12-20T13:38:06.381Z,89.04
2022-12-20T13:40:43.548Z,89.30
2022-12-20T13:43:25.606Z,88.89
2022-12-20T13:45:55.740Z,89.04
2022-12-20T13:48:39.753Z,89.28
2022-12-20T13:51:02.912Z,89.33
2022-12-20T13:53:27.937Z,88.98
2022-12-20T13:55:50.549Z,89.27
2022-12-20T13:58:19.560Z,89.45
2022-12-20T14:00:41.904Z,89.44
2022-12-20T14:03:05.149Z,89.39
2022-12-20T14:05:36.848Z,89.20
2022-12-20T14:08:16.139Z,89.45
2022-12-20T14:10:38.138Z,89.51
2022-12-20T14:13:00.237Z,89.78
2022-12-20T14:15:24.727Z,89.86
2022-12-20T14:17:46.718Z,89.90
2022-12-20T14:20:22.482Z,89.65
2022-12-20T14:23:05.123Z,89.76
2022-12-20T14:25:58.567Z,89.57
2022-12-20T14:28:46.607Z,90.11
2022-12-20T14:31:46.954Z,89.71
2022-12-20T14:34:11.800Z,89.92
2022-12-20T14:36:34.481Z,90.16
2022-12-20T14:38:56.616Z,90.05
2022-12-20T14:41:43.746Z,90.20
2022-12-20T14:44:21.850Z,90.25
2022-12-20T14:46:53.573Z,90.31
2022-12-20T14:49:32.259Z,90.85
2022-12-20T14:52:08.184Z,90.75
2022-12-20T14:55:06.249Z,90.63
2022-12-20T14:57:24.751Z,90.39
2022-12-20T15:00:14.993Z,90.44
2022-12-20T15:02:56.947Z,90.56
2022-12-20T15:05:40.373Z,90.58
2022-12-20T15:08:28.744Z,90.58
2022-12-20T15:10:58.303Z,90.32
2022-12-20T15:13:37.422Z,90.56
2022-12-20T15:16:06.412Z,90.62
2022-12-20T15:18:28.350Z,90.57
2022-12-20T15:21:10.544Z,90.59
2022-12-20T15:23:33.242Z,90.30
2022-12-20T15:25:55.261Z,90.61
2022-12-20T15:28:23.725Z,90.54
2022-12-20T15:30:48.202Z,90.52
2022-12-20T15:33:16.315Z,90.59
2022-12-20T15:35:38.204Z,90.74
2022-12-20T15:38:00.105Z,90.61
2022-12-20T15:40:22.019Z,90.49
2022-12-20T15:42:44.068Z,90.79
2022-12-20T15:45:06.567Z,90.68
2022-12-20T15:47:28.575Z,90.58
2022-12-20T15:49:50.905Z,90.41
2022-12-20T15:52:21.792Z,90.41
2022-12-20T15:54:43.640Z,90.20
2022-12-20T15:57:11.535Z,90.39
2022-12-20T15:59:59.665Z,90.81
2022-12-20T16:02:27.402Z,90.70
2022-12-20T16:04:50.881Z,90.43
2022-12-20T16:07:13.215Z,90.91
2022-12-20T16:09:35.091Z,90.90
2022-12-20T16:11:57.283Z,90.85
2022-12-20T16:14:21.652Z,90.76
2022-12-20T16:16:44.180Z,90.90
2022-12-20T16:19:06.270Z,90.74
2022-12-20T16:21:36.283Z,90.77
2022-12-20T16:23:58.891Z,91.16
2022-12-20T16:26:24.932Z,91.02
2022-12-20T16:28:50.161Z,90.91
2022-12-20T16:31:31.064Z,91.30
2022-12-20T16:33:55.832Z,91.04
2022-12-20T16:36:18.056Z,91.32
2022-12-20T16:38:40.828Z,91.45
2022-12-20T16:41:23.115Z,91.40
2022-12-20T16:43:47.675Z,91.57
2022-12-20T16:46:14.174Z,91.33
2022-12-20T16:48:36.739Z,91.52
2022-12-20T16:50:58.811Z,91.21
2022-12-20T16:53:21.199Z,91.32
2022-12-20T16:55:43.282Z,91.26
2022-12-20T16:58:05.746Z,91.00
2022-12-20T17:00:28.518Z,91.05
2022-12-20T17:02:51.890Z,91.12
2022-12-20T17:05:39.733Z,90.96
2022-12-20T17:08:01.950Z,91.03
2022-12-20T17:10:27.134Z,91.22
2022-12-20T17:12:49.870Z,90.84
2022-12-20T17:15:32.007Z,91.04
2022-12-20T17:17:55.055Z,90.71
2022-12-20T17:20:19.542Z,91.08
2022-12-20T17:25:29.452Z,90.99
2022-12-20T17:27:52.430Z,90.86
2022-12-20T17:30:14.704Z,90.83
2022-12-20T17:32:36.846Z,90.94
2022-12-20T17:34:58.786Z,90.85
2022-12-20T17:37:21.702Z,90.88
2022-12-20T17:39:44.133Z,90.71
2022-12-20T17:42:06.195Z,91.01
2022-12-20T17:44:29.357Z,90.58
2022-12-20T17:46:53.302Z,91.05
2022-12-20T17:49:16.577Z,90.88
2022-12-20T17:51:38.893Z,91.12
2022-12-20T17:54:04.033Z,90.90
2022-12-20T17:56:30.914Z,90.86
2022-12-20T17:58:55.373Z,91.27
2022-12-20T18:01:24.947Z,91.03
2022-12-20T18:04:05.601Z,90.87
2022-12-20T18:06:32.439Z,91.15
2022-12-20T18:08:57.528Z,91.06
2022-12-20T18:11:22.573Z,91.23
2022-12-20T18:13:50.033Z,91.02
2022-12-20T18:16:20.531Z,91.31
2022-12-20T18:18:42.888Z,91.30
2022-12-20T18:21:08.328Z,91.50
2022-12-20T18:23:33.341Z,91.69
2022-12-20T18:26:11.141Z,91.63
2022-12-20T18:28:33.380Z,91.45
2022-12-20T18:30:55.487Z,91.38
2022-12-20T18:33:17.398Z,91.69
2022-12-20T18:35:39.270Z,91.40
2022-12-20T18:38:01.127Z,91.68
2022-12-20T18:40:23.084Z,91.73
2022-12-20T18:42:48.289Z,91.40
2022-12-20T18:45:11.454Z,91.71
2022-12-20T18:47:33.363Z,91.64
2022-12-20T18:49:55.395Z,91.43
2022-12-20T18:52:17.530Z,91.73
2022-12-20T18:54:39.500Z,91.61
2022-12-20T18:57:01.458Z,91.63
2022-12-20T18:59:23.549Z,91.64
2022-12-20T19:01:45.618Z,91.82
2022-12-20T19:04:09.028Z,91.57
2022-12-20T19:06:32.971Z,91.49
2022-12-20T19:08:55.226Z,91.42
2022-12-20T19:11:23.240Z,91.47
2022-12-20T19:13:45.681Z,91.53
2022-12-20T19:16:15.680Z,91.35
2022-12-20T19:18:37.834Z,91.59
2022-12-20T19:21:08.764Z,91.58
2022-12-20T19:23:30.672Z,91.67
2022-12-20T19:25:52.670Z,91.49
2022-12-20T19:28:14.614Z,91.49
2022-12-20T19:30:36.708Z,91.50
2022-12-20T19:32:58.730Z,91.38
2022-12-20T19:35:54.407Z,91.39
2022-12-20T19:38:06.704Z,91.63
2022-12-20T19:40:29.031Z,91.63
2022-12-20T19:42:51.103Z,91.44
2022-12-20T19:45:13.196Z,91.53
2022-12-20T19:47:35.410Z,91.43
2022-12-20T19:49:57.296Z,91.23
2022-12-20T19:52:28.282Z,91.16
2022-12-20T19:54:50.979Z,91.43
2022-12-20T19:57:13.044Z,91.26
2022-12-20T19:59:35.527Z,91.16
2022-12-20T20:01:57.729Z,91.17
2022-12-20T20:04:20.003Z,91.45
2022-12-20T20:06:42.198Z,91.17
2022-12-20T20:09:04.228Z,91.34
2022-12-20T20:11:29.016Z,91.36
2022-12-20T20:13:52.748Z,91.55
2022-12-20T20:16:20.238Z,91.32
2022-12-20T20:18:46.831Z,91.62
2022-12-20T20:21:14.545Z,91.60
2022-12-20T20:23:38.174Z,91.23
2022-12-20T20:26:00.678Z,91.32
2022-12-20T20:28:31.700Z,91.11
2022-12-20T20:30:55.453Z,91.04
2022-12-20T20:33:18.000Z,91.28
2022-12-20T20:35:40.421Z,91.13
2022-12-20T20:38:02.446Z,91.17
2022-12-20T20:40:24.329Z,91.28
2022-12-20T20:42:46.254Z,91.35
2022-12-20T20:45:09.090Z,91.27
2022-12-20T20:47:33.761Z,91.18
2022-12-20T20:49:55.595Z,91.12
2022-12-20T20:52:17.438Z,91.18
2022-12-20T20:54:39.350Z,91.20
2022-12-20T20:57:01.269Z,91.10
2022-12-20T20:59:23.268Z,91.08
2022-12-20T21:01:45.565Z,91.05
2022-12-20T21:04:07.788Z,91.19
2022-12-20T21:06:40.033Z,91.06
2022-12-20T21:09:05.200Z,90.95
2022-12-20T21:11:28.208Z,90.79
2022-12-20T21:13:50.307Z,90.90
2022-12-20T21:16:20.758Z,91.01
2022-12-20T21:18:43.025Z,91.27
2022-12-20T21:21:11.710Z,91.25
2022-12-20T21:23:33.745Z,91.28
2022-12-20T21:25:59.553Z,91.34
2022-12-20T21:28:21.630Z,91.24
2022-12-20T21:30:43.507Z,91.37
2022-12-20T21:33:05.388Z,91.10
2022-12-20T21:35:27.298Z,91.38
2022-12-20T21:37:49.241Z,91.22
2022-12-20T21:40:12.223Z,91.46
2022-12-20T21:42:34.136Z,91.18
2022-12-20T21:44:55.968Z,91.30
2022-12-20T21:47:17.825Z,91.02
2022-12-20T21:49:39.731Z,91.33
2022-12-20T21:52:01.656Z,90.94
2022-12-20T21:54:23.967Z,91.10
2022-12-20T21:56:45.860Z,90.87
2022-12-20T21:59:10.116Z,91.14
2022-12-20T22:01:32.452Z,91.26
2022-12-20T22:04:02.426Z,91.32
2022-12-20T22:06:25.552Z,91.11
2022-12-20T22:08:47.826Z,91.42
2022-12-20T22:11:17.238Z,91.30
2022-12-20T22:13:42.055Z,91.35
2022-12-20T22:16:26.075Z,91.56
2022-12-20T22:18:51.021Z,91.30
2022-12-20T22:21:16.401Z,91.52
2022-12-20T22:23:39.010Z,91.78
2022-12-20T22:26:07.291Z,91.44
2022-12-20T22:28:29.667Z,91.25
2022-12-20T22:30:52.462Z,91.02
2022-12-20T22:33:14.336Z,90.93
2022-12-20T22:35:36.228Z,90.66
2022-12-20T22:37:58.090Z,91.07
2022-12-20T22:40:20.233Z,90.95
2022-12-20T22:42:42.133Z,90.97
2022-12-20T22:45:05.276Z,91.03
2022-12-20T22:47:27.223Z,91.00
2022-12-20T22:49:49.114Z,90.79
2022-12-20T22:52:11.147Z,90.77
2022-12-20T22:54:33.318Z,90.68
2022-12-20T22:56:56.177Z,90.66
2022-12-20T22:59:18.613Z,90.80
2022-12-20T23:01:40.565Z,90.46
2022-12-20T23:04:02.780Z,90.70
2022-12-20T23:06:24.771Z,90.51
2022-12-20T23:08:47.977Z,90.41
2022-12-20T23:11:43.232Z,90.41
2022-12-20T23:14:24.696Z,90.37
2022-12-20T23:16:46.681Z,90.20
2022-12-20T23:19:08.836Z,90.20
2022-12-20T23:21:49.193Z,90.04
2022-12-20T23:24:13.512Z,90.27
2022-12-20T23:26:37.027Z,90.09
2022-12-20T23:28:59.678Z,90.39
2022-12-20T23:31:21.557Z,90.57
2022-12-20T23:33:44.638Z,90.23
2022-12-20T23:36:07.690Z,90.36
2022-12-20T23:38:35.263Z,90.24
2022-12-20T23:40:57.139Z,90.22
2022-12-20T23:43:19.311Z,90.03
2022-12-20T23:45:41.302Z,90.26
2022-12-20T23:48:03.430Z,90.04
2022-12-20T23:50:25.323Z,90.10
2022-12-20T23:52:47.286Z,90.03
2022-12-20T23:55:09.620Z,89.88
2022-12-20T23:57:31.868Z,89.80
2022-12-20T23:59:53.838Z,89.84
